Aviation Digital Data Service (ADDS)

Output produced by METARs form (0805 UTC 18 February 2019)
found at http://www.aviationweather.gov/metar/data/
 
Forecast for: SBRJ (SANTOS DUMONT/RI, BR)
Text: TAF SBRJ 180400Z 1806/1818 33005KT 7000 SCT010 SCT030TN24/1808Z TX32/1818Z
Forecast period: 0600 to 0800 UTC 18 February 2019
Forecast type: FROM: standard forecast or significant change
Winds: from the NNW (330 degrees) at 6 MPH (5 knots; 2.6 m/s)
Visibility: 4 miles (7 km)
Ceiling: at least 12,000 feet AGL
Clouds: scattered clouds at 1000 feet AGL
Weather: no significant weather forecast for this period
Text: BECMG 1808/1811 01005KT FEW017 SCT040
Forecast period: 0800 to 1400 UTC 18 February 2019
Forecast type: BECOMING: Conditions expected to become as follows by 1100 UTC 18 February 2019
Winds: from the N (10 degrees) at 6 MPH (5 knots; 2.6 m/s)
Visibility: 4 miles (7 km)
Ceiling: at least 12,000 feet AGL
Clouds: few clouds at 1700 feet AGL
scattered clouds at 4000 feet AGL
Weather: no significant weather forecast for this period
Text: BECMG 1814/1817 15010KT SCT025 RMK PHC
Forecast period: 1400 to 1800 UTC 18 February 2019
Forecast type: BECOMING: Conditions expected to become as follows by 1700 UTC 18 February 2019
Winds: from the SSE (150 degrees) at 12 MPH (10 knots; 5.1 m/s)
Visibility: 4 miles (7 km)
Ceiling: at least 12,000 feet AGL
Clouds: scattered clouds at 2500 feet AGL
Weather: no significant weather forecast for this period